sensor_id;sensor_type;location;lat;lon;timestamp;P1;durP1;ratioP1;P2;durP2;ratioP2
60859;SDS011;46694;54.382;9.708;2023-04-09T08:49:49;47.00;;;31.80;;
60859;SDS011;46694;54.382;9.708;2023-04-09T08:52:32;44.97;;;32.45;;
60859;SDS011;46694;54.382;9.708;2023-04-09T08:55:12;47.10;;;29.67;;
60859;SDS011;46694;54.382;9.708;2023-04-09T08:57:52;41.45;;;31.38;;
60859;SDS011;46694;54.382;9.708;2023-04-09T09:00:32;42.00;;;29.10;;
60859;SDS011;46694;54.382;9.708;2023-04-09T09:03:11;40.13;;;28.70;;
60859;SDS011;46694;54.382;9.708;2023-04-09T09:05:51;43.27;;;27.47;;
60859;SDS011;46694;54.382;9.708;2023-04-09T09:08:31;37.87;;;24.47;;
60859;SDS011;46694;54.382;9.708;2023-04-09T09:14:34;37.07;;;24.53;;
60859;SDS011;46694;54.382;9.708;2023-04-09T09:17:14;32.70;;;20.97;;
60859;SDS011;46694;54.382;9.708;2023-04-09T09:19:53;33.97;;;20.73;;
60859;SDS011;46694;54.382;9.708;2023-04-09T09:22:47;39.40;;;20.83;;
60859;SDS011;46694;54.382;9.708;2023-04-09T09:25:36;27.40;;;19.93;;
60859;SDS011;46694;54.382;9.708;2023-04-09T09:31:00;31.97;;;18.20;;
60859;SDS011;46694;54.382;9.708;2023-04-09T09:33:49;32.57;;;19.50;;
60859;SDS011;46694;54.382;9.708;2023-04-09T09:36:29;28.53;;;18.40;;
60859;SDS011;46694;54.382;9.708;2023-04-09T09:39:13;34.50;;;18.70;;
60859;SDS011;46694;54.382;9.708;2023-04-09T09:42:05;37.27;;;20.37;;
60859;SDS011;46694;54.382;9.708;2023-04-09T09:44:45;30.63;;;19.13;;
60859;SDS011;46694;54.382;9.708;2023-04-09T09:47:26;30.13;;;18.70;;
60859;SDS011;46694;54.382;9.708;2023-04-09T09:50:07;33.88;;;20.48;;
60859;SDS011;46694;54.382;9.708;2023-04-09T09:52:46;31.00;;;19.58;;
60859;SDS011;46694;54.382;9.708;2023-04-09T09:55:26;36.15;;;22.10;;
60859;SDS011;46694;54.382;9.708;2023-04-09T09:58:16;29.77;;;19.30;;
60859;SDS011;46694;54.382;9.708;2023-04-09T10:01:09;32.67;;;19.97;;
60859;SDS011;46694;54.382;9.708;2023-04-09T10:03:51;31.53;;;19.20;;
60859;SDS011;46694;54.382;9.708;2023-04-09T10:06:34;34.53;;;17.47;;
60859;SDS011;46694;54.382;9.708;2023-04-09T10:12:40;26.97;;;15.80;;
60859;SDS011;46694;54.382;9.708;2023-04-09T10:15:21;33.17;;;15.43;;
60859;SDS011;46694;54.382;9.708;2023-04-09T10:18:00;26.83;;;17.10;;
60859;SDS011;46694;54.382;9.708;2023-04-09T10:21:16;30.77;;;17.10;;
60859;SDS011;46694;54.382;9.708;2023-04-09T10:24:09;24.93;;;16.97;;
60859;SDS011;46694;54.382;9.708;2023-04-09T10:26:52;25.15;;;16.08;;
60859;SDS011;46694;54.382;9.708;2023-04-09T10:29:32;28.10;;;17.60;;
60859;SDS011;46694;54.382;9.708;2023-04-09T10:32:12;24.70;;;16.60;;
60859;SDS011;46694;54.382;9.708;2023-04-09T10:35:01;21.70;;;15.70;;
60859;SDS011;46694;54.382;9.708;2023-04-09T10:37:42;23.13;;;15.47;;
60859;SDS011;46694;54.382;9.708;2023-04-09T10:40:28;29.40;;;15.43;;
60859;SDS011;46694;54.382;9.708;2023-04-09T10:43:08;27.45;;;16.23;;
60859;SDS011;46694;54.382;9.708;2023-04-09T10:45:48;23.60;;;15.93;;
60859;SDS011;46694;54.382;9.708;2023-04-09T10:48:32;28.13;;;16.50;;
60859;SDS011;46694;54.382;9.708;2023-04-09T10:51:17;22.52;;;16.40;;
60859;SDS011;46694;54.382;9.708;2023-04-09T10:53:57;19.38;;;14.90;;
60859;SDS011;46694;54.382;9.708;2023-04-09T10:56:36;24.47;;;14.77;;
60859;SDS011;46694;54.382;9.708;2023-04-09T10:59:16;28.43;;;15.90;;
60859;SDS011;46694;54.382;9.708;2023-04-09T11:01:56;22.80;;;15.10;;
60859;SDS011;46694;54.382;9.708;2023-04-09T11:07:43;19.93;;;14.53;;
60859;SDS011;46694;54.382;9.708;2023-04-09T11:10:43;22.43;;;13.90;;
60859;SDS011;46694;54.382;9.708;2023-04-09T11:13:26;27.50;;;14.43;;
60859;SDS011;46694;54.382;9.708;2023-04-09T11:16:06;26.70;;;14.20;;
60859;SDS011;46694;54.382;9.708;2023-04-09T11:18:46;21.20;;;14.33;;
60859;SDS011;46694;54.382;9.708;2023-04-09T11:21:26;22.40;;;13.70;;
60859;SDS011;46694;54.382;9.708;2023-04-09T11:24:10;18.87;;;12.60;;
60859;SDS011;46694;54.382;9.708;2023-04-09T11:26:50;21.57;;;11.50;;
60859;SDS011;46694;54.382;9.708;2023-04-09T11:29:33;24.67;;;13.60;;
60859;SDS011;46694;54.382;9.708;2023-04-09T11:32:13;22.50;;;12.93;;
60859;SDS011;46694;54.382;9.708;2023-04-09T11:34:52;17.17;;;11.57;;
60859;SDS011;46694;54.382;9.708;2023-04-09T11:37:32;21.97;;;13.93;;
60859;SDS011;46694;54.382;9.708;2023-04-09T11:43:00;19.60;;;12.20;;
60859;SDS011;46694;54.382;9.708;2023-04-09T11:45:41;18.07;;;12.10;;
60859;SDS011;46694;54.382;9.708;2023-04-09T11:48:21;18.30;;;13.50;;
60859;SDS011;46694;54.382;9.708;2023-04-09T11:51:02;18.80;;;10.67;;
60859;SDS011;46694;54.382;9.708;2023-04-09T11:53:41;18.17;;;10.23;;
60859;SDS011;46694;54.382;9.708;2023-04-09T11:56:21;16.03;;;9.83;;
60859;SDS011;46694;54.382;9.708;2023-04-09T11:59:01;14.30;;;11.10;;
60859;SDS011;46694;54.382;9.708;2023-04-09T12:01:41;16.07;;;10.20;;
60859;SDS011;46694;54.382;9.708;2023-04-09T12:04:27;22.13;;;11.40;;
60859;SDS011;46694;54.382;9.708;2023-04-09T12:07:07;16.07;;;10.50;;
60859;SDS011;46694;54.382;9.708;2023-04-09T12:09:47;15.10;;;10.20;;
60859;SDS011;46694;54.382;9.708;2023-04-09T12:12:27;17.87;;;11.10;;
60859;SDS011;46694;54.382;9.708;2023-04-09T12:15:25;16.67;;;10.10;;
60859;SDS011;46694;54.382;9.708;2023-04-09T12:18:08;14.77;;;9.43;;
60859;SDS011;46694;54.382;9.708;2023-04-09T12:20:49;16.10;;;10.67;;
60859;SDS011;46694;54.382;9.708;2023-04-09T12:23:29;16.50;;;10.00;;
60859;SDS011;46694;54.382;9.708;2023-04-09T12:26:08;17.73;;;10.90;;
60859;SDS011;46694;54.382;9.708;2023-04-09T12:28:48;15.00;;;9.43;;
60859;SDS011;46694;54.382;9.708;2023-04-09T12:31:28;13.60;;;9.40;;
60859;SDS011;46694;54.382;9.708;2023-04-09T12:34:07;20.43;;;9.17;;
60859;SDS011;46694;54.382;9.708;2023-04-09T12:36:47;12.00;;;9.30;;
60859;SDS011;46694;54.382;9.708;2023-04-09T12:39:27;15.20;;;9.47;;
60859;SDS011;46694;54.382;9.708;2023-04-09T12:42:06;14.13;;;9.23;;
60859;SDS011;46694;54.382;9.708;2023-04-09T12:44:46;13.33;;;9.67;;
60859;SDS011;46694;54.382;9.708;2023-04-09T12:47:26;12.33;;;8.80;;
60859;SDS011;46694;54.382;9.708;2023-04-09T12:52:47;14.57;;;9.90;;
